Heights, Texas
Current Conditions -  °F | °C
As of 6:55 PM on Wednesday 22 Oct 2014 (Local Time) from KMCJ Reporting Station
Clear Clear  
Wind Chill: 75°   Ceiling: Unl
Heat Index: 75°   Visibility: 10mi
Dew Point: 55°   Wind: 7mph
Humidity: 50%   Direction: 20°NNE
Pressure: 30.02"   Gusts: NA
Location:  29.7982°N, 95.4183°W
Report Text: KMCJ 222355Z AUTO 02006KT 10SM CLR 24/13 A3002 RMK AO1
Loading
Personal Weather Stations






























Interactive Weather Map
Tropical Storm Tracking
New forecast layout! Learn more

10-Day Weather Forecast

Advertisements
Track Severe Weather on mobile